Marlboro, VT (05344)

8:08 AM EST on December 28, 2014 (GMT -0500)
Atherton Area | Change Station
CLOSE
Current Station
Personal Weather Station
Location: Wilmington, VT
Elevation: 1716 ft
Nearby Weather Stations

Elev 1716 ft 42.90 °N, 72.83 °W | Updated 3 seconds ago

Rain
Rain
40.6 °F
Feels Like 35 °F
N
9.0
Wind Variable Wind from NNW
Gusts 12.0 mph

Today
High -- | Low -- °F
--% Chance of Precip.
Yesterday
High -- | Low -- °F
Precip. -- in
7:21 AM 4:24 PM
Waxing Crescent, 47% visible
Pressure 29.83 in
Visibility 7.0 miles
Clouds Few 3400 ft
Mostly Cloudy 4900 ft
Overcast 7000 ft
Windchill 35 °F
Dew Point 38 °F
Humidity 92%
Rainfall 0.00 in
Snow Depth Not available.
UV 0 out of 12
Pollen .10 out of 12
Air Quality Not available.
Flu Activity Not available.
METAR KEEN 281255Z AUTO 29003KT 7SM FEW034 BKN049 OVC070 04/04 A2983 RMK AO1 P0007

More Conditions Fewer Conditions

Pressure 29.83 in
Visibility 7.0 miles
Clouds Few 3400 ft
Mostly Cloudy 4900 ft
Overcast 7000 ft
Windchill 35 °F
Dew Point 38 °F
Humidity 92%
Rainfall 0.00 in
Snow Depth Not available.
UV 0 out of 12
Pollen .10 out of 12
Air Quality Not available.
Flu Activity Not available.
METAR KEEN 281255Z AUTO 29003KT 7SM FEW034 BKN049 OVC070 04/04 A2983 RMK AO1 P0007

More Conditions Fewer Conditions

10-Day Weather Forecast

Almanac

Astronomy

Dec. 28, 2014 Rise Set
Actual Time
Civil Twilight
Nautical Twilight
Astronomical Twilight
Moon
Length of Visible Light
Length of Day
Tomorrow will be .
, % of the Moon is Illuminated

Today's Extremes

State Highs State Lows

Community

WunderPhotos

Upload Photos

1,781,256 photos uploaded!

WunderBlogs® & News

Nearby

Air Quality

  Air Quality AQ Index Pollutant
Not available.

Snow Depth

Station Depth Elevation

Earthquake Activity

City Distance Mag. Time & Date
Minimum magnitude displayed is 2.5.

Coastal Water Temperatures

Place Temperature

Nearby Weather Stations